Time;durP1;ratioP1;P1;durP2;ratioP2;P2;SDS_P1;SDS_P2;PMS_P1;PMS_P2;Temp;Humidity;BMP_temperature;BMP_pressure;BME280_temperature;BME280_humidity;BME280_pressure;Samples;Min_cycle;Max_cycle;Signal;HPM_P1;HPM_P2
2021/03/11 00:00:24;;;;;;;19.65;11.63;;;6.10;88.50;;;5.45;58.43;101049.44;5011701;28;20375;-46
2021/03/11 00:02:50;;;;;;;18.00;11.35;;;6.10;89.30;;;5.42;58.60;101044.47;5011028;28;20041;-47
2021/03/11 00:05:20;;;;;;;20.15;12.60;;;6.00;90.20;;;5.49;58.12;101037.97;5005210;28;20038;-47
2021/03/11 00:07:46;;;;;;;18.08;11.75;;;6.00;88.90;;;5.58;58.12;101050.31;5012126;28;20026;-45
2021/03/11 00:10:13;;;;;;;19.70;11.73;;;6.10;89.10;;;5.61;57.43;101044.94;5011377;28;20045;-46
2021/03/11 00:12:43;;;;;;;20.10;12.05;;;6.20;87.50;;;5.63;57.12;101040.50;4991334;28;20397;-46
2021/03/11 00:15:20;;;;;;;20.48;12.05;;;6.20;86.40;;;5.64;57.13;101047.34;4999196;28;20052;-45
2021/03/11 00:17:46;;;;;;;18.17;11.48;;;6.20;85.70;;;5.66;56.38;101042.91;5012363;28;20034;-44
2021/03/11 00:20:17;;;;;;;18.20;11.65;;;6.20;84.60;;;5.73;55.58;101045.06;5010784;28;20041;-46
2021/03/11 00:22:43;;;;;;;20.13;12.30;;;6.20;83.70;;;5.79;55.00;101047.25;5006511;28;20490;-44
2021/03/11 00:25:12;;;;;;;19.50;12.90;;;6.30;82.70;;;5.79;55.46;101049.84;4998147;28;20541;-43
2021/03/11 00:27:39;;;;;;;18.33;11.68;;;6.30;82.80;;;5.78;55.48;101050.75;5010765;28;20040;-43
2021/03/11 00:30:08;;;;;;;19.42;11.32;;;6.30;83.60;;;5.72;56.39;101048.56;5010699;28;20034;-45
2021/03/11 00:32:35;;;;;;;18.02;11.70;;;6.30;84.10;;;5.74;55.83;101047.56;5012149;28;20152;-45
2021/03/11 00:35:01;;;;;;;20.73;12.48;;;6.30;83.80;;;5.81;55.58;101047.97;5010193;28;20048;-47
2021/03/11 00:37:27;;;;;;;15.02;10.25;;;6.30;83.40;;;5.82;55.47;101034.13;5008197;28;20030;-48
2021/03/11 00:39:53;;;;;;;21.58;12.43;;;6.30;83.30;;;5.82;55.92;101040.13;5009806;28;20378;-47
2021/03/11 00:42:19;;;;;;;19.25;11.88;;;6.40;83.40;;;5.85;56.00;101033.94;5012148;28;20038;-46
2021/03/11 00:44:45;;;;;;;18.40;10.98;;;6.40;84.40;;;5.89;55.74;101033.66;5011265;28;20110;-50
2021/03/11 00:47:19;;;;;;;18.95;10.95;;;6.40;83.40;;;5.91;55.49;101031.81;5011586;28;20048;-48
2021/03/11 00:49:45;;;;;;;14.25;10.48;;;6.50;83.30;;;5.90;55.71;101034.50;5011545;28;20038;-44
2021/03/11 00:52:12;;;;;;;18.50;11.25;;;6.40;83.10;;;5.92;55.56;101037.81;5010693;28;20037;-48
2021/03/11 00:54:39;;;;;;;16.50;10.27;;;6.40;82.80;;;5.93;55.51;101031.72;5009973;28;20134;-47
2021/03/11 00:57:05;;;;;;;18.98;11.63;;;6.40;82.40;;;5.87;55.51;101025.16;5011713;28;20034;-44
2021/03/11 00:59:32;;;;;;;13.68;9.73;;;6.40;82.40;;;5.89;55.04;101028.50;5011566;28;20041;-47
2021/03/11 01:01:58;;;;;;;18.73;11.35;;;6.40;82.30;;;5.92;55.11;101027.47;5011300;28;20034;-43
2021/03/11 01:04:24;;;;;;;19.50;13.15;;;6.40;81.90;;;5.92;55.12;101022.28;5010937;28;20084;-48
2021/03/11 01:06:50;;;;;;;21.05;11.88;;;6.40;82.00;;;5.93;54.98;101022.19;5011181;28;20114;-47
2021/03/11 01:09:16;;;;;;;17.52;11.60;;;6.40;82.20;;;5.90;55.31;101029.31;5011141;28;20033;-49
2021/03/11 01:11:42;;;;;;;17.67;11.73;;;6.40;82.50;;;5.90;55.64;101030.16;5011026;28;20104;-44
2021/03/11 01:14:08;;;;;;;18.88;11.68;;;6.40;83.00;;;5.87;56.19;101026.91;5011375;28;20034;-45
2021/03/11 01:16:35;;;;;;;19.98;12.40;;;6.40;83.80;;;5.81;55.92;101020.38;5010357;28;20374;-44
2021/03/11 01:19:00;;;;;;;20.52;13.45;;;6.40;84.20;;;5.79;56.32;101023.97;5011320;28;20041;-47
2021/03/11 01:21:26;;;;;;;19.92;12.68;;;6.30;84.20;;;5.79;56.49;101022.22;5009045;28;20034;-48
2021/03/11 01:23:52;;;;;;;16.80;10.45;;;6.30;84.60;;;5.83;56.23;101025.44;5010899;28;20046;-44
2021/03/11 01:26:18;;;;;;;14.60;10.15;;;6.30;84.30;;;5.84;56.33;101020.16;5008958;28;20088;-50
2021/03/11 01:28:44;;;;;;;22.10;12.13;;;6.40;84.50;;;5.88;55.74;101018.22;5011165;28;20038;-45
2021/03/11 01:31:10;;;;;;;16.65;11.07;;;6.40;84.10;;;5.91;55.61;101018.03;5007466;28;20524;-45
2021/03/11 01:33:36;;;;;;;18.52;11.30;;;6.40;84.00;;;5.90;55.76;101018.97;5010750;28;20038;-46
2021/03/11 01:36:03;;;;;;;18.42;11.13;;;6.40;84.00;;;5.90;56.09;101016.38;5007157;28;20033;-46
2021/03/11 01:38:28;;;;;;;19.27;11.48;;;6.40;84.20;;;5.92;55.94;101023.13;5009549;28;20409;-46
2021/03/11 01:40:55;;;;;;;14.98;11.18;;;6.40;84.20;;;5.91;56.40;101025.81;5009510;28;20065;-49
2021/03/11 01:43:21;;;;;;;16.45;11.25;;;6.50;84.40;;;5.90;56.23;101017.22;5010716;28;20041;-46
2021/03/11 01:45:47;;;;;;;16.85;11.38;;;6.40;84.50;;;5.90;55.90;101014.63;5009491;28;20334;-46
2021/03/11 01:48:13;;;;;;;18.08;10.77;;;6.40;84.20;;;5.89;56.20;101014.72;5010416;28;20452;-43
2021/03/11 01:50:40;;;;;;;15.90;10.07;;;6.40;84.10;;;5.89;55.88;101014.72;5009686;28;20096;-46
2021/03/11 01:53:07;;;;;;;17.35;11.25;;;6.40;84.10;;;5.88;55.65;101010.47;5010255;28;20378;-47
2021/03/11 01:55:33;;;;;;;16.08;11.15;;;6.40;84.00;;;5.91;55.49;100999.94;5007321;28;20040;-47
2021/03/11 01:58:00;;;;;;;17.95;11.98;;;6.40;83.60;;;5.88;55.80;101003.53;5008957;28;20058;-48
2021/03/11 02:00:27;;;;;;;17.95;12.07;;;6.40;83.80;;;5.80;56.38;101002.38;5003541;28;20494;-44
2021/03/11 02:02:54;;;;;;;16.00;11.13;;;6.40;85.00;;;5.78;56.49;100999.06;5010171;28;20045;-44
2021/03/11 02:05:22;;;;;;;16.38;11.35;;;6.30;85.40;;;5.73;56.94;100994.19;5009963;28;20030;-44
2021/03/11 02:07:48;;;;;;;19.90;12.07;;;6.30;85.80;;;5.70;57.32;100994.38;5009965;28;20068;-48
2021/03/11 02:10:22;;;;;;;17.27;10.63;;;6.30;86.40;;;5.64;57.43;100990.47;5007304;28;20072;-44
2021/03/11 02:13:18;;;;;;;19.42;11.57;;;6.20;86.90;;;5.57;57.82;100990.97;5009569;28;20033;-45
2021/03/11 02:16:20;;;;;;;18.77;11.20;;;6.20;86.60;;;5.56;57.78;100984.97;5009115;28;20123;-45
2021/03/11 02:19:27;;;;;;;15.43;11.13;;;6.10;87.30;;;5.61;57.61;100985.50;5008941;28;20050;-47
2021/03/11 02:22:14;;;;;;;20.07;11.33;;;6.10;86.80;;;5.64;57.26;100977.53;5000530;28;20037;-45
2021/03/11 02:25:09;;;;;;;24.52;12.18;;;6.20;86.60;;;5.74;56.72;100982.91;5008353;28;20038;-47
2021/03/11 02:28:18;;;;;;;18.25;11.88;;;6.20;85.70;;;5.78;56.77;100973.19;4953506;28;20034;-46
2021/03/11 02:30:45;;;;;;;18.20;11.38;;;6.30;85.50;;;5.71;56.67;100967.59;5008398;28;20030;-43
2021/03/11 02:33:13;;;;;;;17.80;11.38;;;6.20;86.80;;;5.63;57.34;100968.13;5009653;28;20092;-49
2021/03/11 02:35:41;;;;;;;20.95;12.07;;;6.20;87.40;;;5.64;57.31;100971.53;5007362;28;20030;-49
2021/03/11 02:38:10;;;;;;;16.98;10.75;;;6.20;87.00;;;5.66;57.00;100964.50;5004476;28;20030;-43
2021/03/11 02:40:38;;;;;;;14.68;10.23;;;6.20;87.10;;;5.73;56.69;100960.56;5009377;28;20044;-47
2021/03/11 02:43:12;;;;;;;15.98;10.77;;;6.20;86.20;;;5.78;56.79;100955.09;4990869;28;20050;-45
2021/03/11 02:45:40;;;;;;;17.17;10.88;;;6.30;85.50;;;5.76;56.28;100941.44;5009617;28;20113;-44
2021/03/11 02:48:08;;;;;;;14.77;9.38;;;6.30;85.30;;;5.77;56.56;100948.28;5004724;28;20030;-46
2021/03/11 02:50:37;;;;;;;17.38;11.25;;;6.30;85.40;;;5.77;56.26;100950.84;4994087;28;20313;-45
2021/03/11 02:53:08;;;;;;;14.43;10.00;;;6.30;84.90;;;5.74;56.34;100944.13;5004179;28;20038;-43
2021/03/11 02:55:37;;;;;;;15.75;10.32;;;6.30;85.60;;;5.73;56.68;100939.06;5004677;28;20480;-42
2021/03/11 02:58:04;;;;;;;19.02;11.23;;;6.30;85.80;;;5.74;56.35;100945.88;5002857;28;20038;-44
2021/03/11 03:00:31;;;;;;;16.15;11.27;;;6.30;85.50;;;5.71;56.67;100939.16;4991152;28;20030;-43
2021/03/11 03:02:57;;;;;;;18.23;11.20;;;6.20;85.70;;;5.70;56.46;100942.69;5009156;28;20036;-45
2021/03/11 03:05:29;;;;;;;15.85;10.55;;;6.20;86.10;;;5.71;57.09;100940.91;5007585;28;20033;-47
2021/03/11 03:07:57;;;;;;;21.17;12.05;;;6.20;86.20;;;5.68;56.85;100936.78;4972141;28;20034;-44
2021/03/11 03:10:28;;;;;;;17.00;10.68;;;6.20;86.30;;;5.65;56.94;100937.00;4990944;28;21373;-44
2021/03/11 03:12:57;;;;;;;18.25;11.40;;;6.20;86.90;;;5.66;56.85;100939.50;5008820;28;20132;-44
2021/03/11 03:15:24;;;;;;;17.48;10.77;;;6.20;86.80;;;5.65;56.98;100943.00;5006079;28;20034;-44
2021/03/11 03:17:52;;;;;;;17.95;11.75;;;6.20;87.00;;;5.64;57.23;100941.34;4987625;28;20125;-44
2021/03/11 03:20:21;;;;;;;17.30;11.43;;;6.10;87.00;;;5.66;56.84;100949.00;5118172;23;20097;-43
2021/03/11 03:22:50;;;;;;;20.25;11.57;;;6.20;87.00;;;5.68;57.11;100947.13;5007454;28;20065;-46
2021/03/11 03:25:17;;;;;;;16.65;10.60;;;6.20;86.80;;;5.66;57.26;100949.84;5008663;28;20097;-49
2021/03/11 03:27:43;;;;;;;20.85;12.13;;;6.20;87.00;;;5.66;56.95;100952.41;5008778;28;20393;-43
2021/03/11 03:30:16;;;;;;;15.13;11.05;;;6.20;86.80;;;5.67;56.91;100946.28;5008729;28;20121;-44
2021/03/11 03:32:43;;;;;;;18.50;11.68;;;6.20;86.80;;;5.68;56.71;100950.53;5008454;28;20056;-42
2021/03/11 03:35:11;;;;;;;17.48;11.07;;;6.20;86.30;;;5.71;57.02;100956.44;5008437;28;20430;-43
2021/03/11 03:37:38;;;;;;;18.58;11.10;;;6.20;86.80;;;5.73;56.63;100957.16;5008610;28;20038;-47
2021/03/11 03:40:07;;;;;;;19.27;11.77;;;6.20;86.70;;;5.73;56.92;100964.91;5006962;28;20129;-44
2021/03/11 03:42:40;;;;;;;16.30;10.73;;;6.30;86.60;;;5.71;57.50;100970.19;4991142;28;20044;-46
2021/03/11 03:45:11;;;;;;;17.50;10.93;;;6.30;87.40;;;5.64;58.41;100974.97;4991346;28;20049;-44
2021/03/11 03:47:38;;;;;;;20.13;11.70;;;6.20;89.00;;;5.63;57.91;100970.72;4991229;28;20073;-43
2021/03/11 03:50:05;;;;;;;16.77;11.15;;;6.20;89.40;;;5.60;57.88;100964.91;4990761;28;20036;-43
2021/03/11 03:52:32;;;;;;;17.02;10.50;;;6.10;89.30;;;5.59;58.44;100969.25;5008327;28;20059;-44
2021/03/11 03:55:00;;;;;;;18.92;10.73;;;6.10;89.90;;;5.55;58.42;100952.28;4990932;28;20026;-43
2021/03/11 03:57:28;;;;;;;17.98;11.30;;;6.10;89.90;;;5.51;58.71;100950.00;4990673;28;20073;-49
2021/03/11 03:59:55;;;;;;;15.55;9.95;;;6.10;90.10;;;5.50;58.19;100953.50;4990635;28;20033;-43
2021/03/11 04:02:23;;;;;;;18.17;11.38;;;6.10;89.70;;;5.51;58.10;100957.75;5008050;28;20033;-44
2021/03/11 04:04:52;;;;;;;23.10;13.77;;;6.00;89.40;;;5.48;57.91;100956.19;4990874;28;20041;-46
2021/03/11 04:07:26;;;;;;;21.25;13.70;;;6.00;89.60;;;5.55;57.95;100948.88;5008538;28;20030;-45
2021/03/11 04:09:53;;;;;;;18.58;11.95;;;6.10;89.00;;;5.56;57.37;100953.13;5008162;28;20485;-46
2021/03/11 04:12:20;;;;;;;20.00;11.52;;;6.10;88.40;;;5.55;57.19;100956.63;5008180;28;20038;-43
2021/03/11 04:14:48;;;;;;;17.63;11.02;;;6.10;88.20;;;5.54;57.29;100960.97;5008219;28;20034;-44
2021/03/11 04:17:15;;;;;;;17.63;10.98;;;6.10;88.40;;;5.56;57.20;100950.53;4990705;28;20037;-45
2021/03/11 04:19:43;;;;;;;20.77;11.30;;;6.10;88.00;;;5.54;57.54;100948.03;5008278;28;20064;-45
2021/03/11 04:22:09;;;;;;;17.90;11.02;;;6.10;87.90;;;5.55;57.63;100956.63;4990267;28;20155;-45
2021/03/11 04:24:37;;;;;;;18.92;10.65;;;6.10;88.10;;;5.53;57.52;100951.56;4990359;28;20439;-43
2021/03/11 04:27:07;;;;;;;19.15;11.13;;;6.10;88.00;;;5.53;57.38;100961.06;5007975;28;20179;-46
2021/03/11 04:29:33;;;;;;;17.25;10.88;;;6.10;88.10;;;5.55;57.51;100961.81;5007679;28;20041;-46
2021/03/11 04:32:01;;;;;;;19.73;11.25;;;6.10;88.00;;;5.50;57.98;100969.84;4990472;28;20062;-46
2021/03/11 04:34:28;;;;;;;15.88;9.98;;;6.10;89.50;;;5.42;58.94;100972.09;5008185;28;20100;-48
2021/03/11 04:36:55;;;;;;;15.43;9.77;;;6.00;90.20;;;5.38;59.15;100973.22;5007843;28;20104;-50
2021/03/11 04:39:23;;;;;;;16.23;9.73;;;6.00;90.50;;;5.36;59.21;100977.66;4993714;28;20045;-45
2021/03/11 04:41:52;;;;;;;15.55;10.85;;;5.90;90.90;;;5.41;59.16;100979.94;4993761;28;20038;-49
2021/03/11 04:44:22;;;;;;;20.65;11.70;;;5.90;90.60;;;5.50;58.63;100985.34;5011753;28;20117;-49
2021/03/11 04:46:49;;;;;;;19.52;12.10;;;6.00;90.40;;;5.54;58.64;100980.81;5011407;28;20485;-44
2021/03/11 04:49:15;;;;;;;14.70;10.85;;;6.10;90.60;;;5.55;58.22;100978.13;4993736;28;20038;-44
2021/03/11 04:51:42;;;;;;;18.58;11.73;;;6.10;90.60;;;5.54;58.27;100973.91;4993924;28;20034;-44
2021/03/11 04:54:08;;;;;;;18.17;11.20;;;6.10;90.40;;;5.54;58.21;100981.66;4993869;28;20034;-45
2021/03/11 04:56:35;;;;;;;18.13;10.65;;;6.10;90.50;;;5.58;58.23;100977.94;4993298;28;20045;-43
2021/03/11 04:59:01;;;;;;;20.95;12.20;;;6.10;90.50;;;5.58;58.07;100975.34;4993792;28;20029;-43
2021/03/11 05:01:36;;;;;;;15.48;10.32;;;6.10;90.40;;;5.59;58.45;100974.44;5010273;28;20108;-43
2021/03/11 05:04:04;;;;;;;21.55;12.32;;;6.10;90.30;;;5.60;57.86;100973.50;5011334;28;20068;-44
2021/03/11 05:06:30;;;;;;;17.70;11.40;;;6.10;90.20;;;5.62;58.11;100976.81;4993936;28;20129;-45
2021/03/11 05:08:56;;;;;;;18.38;11.65;;;6.10;90.10;;;5.64;57.82;100977.53;5011033;28;20038;-45
2021/03/11 05:11:22;;;;;;;19.80;12.13;;;6.20;90.00;;;5.65;57.50;100968.03;5011145;28;20038;-44
2021/03/11 05:13:48;;;;;;;15.77;10.82;;;6.20;89.50;;;5.67;57.24;100966.16;5009826;28;20075;-45
2021/03/11 05:16:14;;;;;;;18.25;11.23;;;6.20;88.10;;;5.67;57.33;100973.94;5011066;28;20136;-44
2021/03/11 05:18:40;;;;;;;16.20;10.48;;;6.20;88.10;;;5.66;56.77;100969.69;5010009;28;20120;-45
2021/03/11 05:21:08;;;;;;;14.55;9.90;;;6.20;86.40;;;5.64;56.50;100976.72;5010685;28;20110;-47
2021/03/11 05:23:33;;;;;;;15.05;8.30;;;6.20;86.10;;;5.63;56.29;100977.63;5007177;28;20034;-45
2021/03/11 05:25:59;;;;;;;18.42;10.75;;;6.20;85.60;;;5.61;56.53;100987.25;5008102;28;20378;-44
2021/03/11 05:28:26;;;;;;;15.90;10.10;;;6.10;85.50;;;5.61;56.39;100985.50;5010888;28;20109;-44
2021/03/11 05:30:52;;;;;;;17.88;10.35;;;6.20;85.80;;;5.60;56.44;100985.59;5009697;28;20033;-43
2021/03/11 05:33:18;;;;;;;17.17;10.25;;;6.20;85.80;;;5.60;56.39;100988.19;5009936;28;20061;-44
2021/03/11 05:35:44;;;;;;;16.45;9.43;;;6.10;85.30;;;5.60;56.57;100983.84;5009577;28;20026;-46
2021/03/11 05:38:10;;;;;;;19.60;10.43;;;6.20;85.40;;;5.62;56.33;100984.56;5009798;28;20056;-45
2021/03/11 05:40:37;;;;;;;20.23;11.15;;;6.10;85.70;;;5.62;56.50;100983.75;5010505;28;20045;-42
2021/03/11 05:43:06;;;;;;;17.48;10.07;;;6.20;85.80;;;5.62;56.54;100984.56;5009635;28;20493;-42
2021/03/11 05:45:33;;;;;;;15.88;10.15;;;6.20;85.40;;;5.64;56.15;100984.47;5009377;28;20128;-43
2021/03/11 05:47:59;;;;;;;16.70;8.95;;;6.10;85.50;;;5.66;56.47;100974.84;5009373;28;20116;-43
2021/03/11 05:50:26;;;;;;;14.48;9.40;;;6.20;85.30;;;5.67;56.47;100966.16;5009106;28;20397;-46
2021/03/11 05:52:56;;;;;;;15.80;9.57;;;6.20;85.80;;;5.70;56.38;100970.28;5010099;28;20033;-42
2021/03/11 05:55:22;;;;;;;13.55;9.50;;;6.20;85.60;;;5.72;56.48;100958.09;5009378;28;20052;-43
2021/03/11 05:57:48;;;;;;;13.27;8.73;;;6.20;85.60;;;5.73;56.74;100964.91;4992623;28;20030;-43
2021/03/11 06:00:20;;;;;;;15.80;10.18;;;6.30;86.10;;;5.76;57.08;100965.53;5008202;28;20180;-44
2021/03/11 06:02:58;;;;;;;19.00;9.73;;;6.30;86.40;;;5.82;57.18;100977.25;5009222;28;20053;-45
2021/03/11 06:05:25;;;;;;;18.40;9.63;;;6.40;86.80;;;5.83;56.81;100971.97;5008988;28;20077;-44
2021/03/11 06:07:51;;;;;;;16.45;10.43;;;6.40;86.60;;;5.79;56.94;100977.44;4992361;28;20040;-44
2021/03/11 06:10:20;;;;;;;14.88;8.90;;;6.40;86.50;;;5.88;56.42;100985.41;4992024;28;20041;-47
2021/03/11 06:12:48;;;;;;;18.50;10.07;;;6.40;86.00;;;5.94;56.19;100989.41;5008870;28;20037;-46
2021/03/11 06:15:31;;;;;;;15.65;9.45;;;6.50;85.80;;;5.98;56.32;100990.84;5008266;28;20080;-45
2021/03/11 06:17:59;;;;;;;14.45;9.60;;;6.50;85.60;;;5.98;56.08;100993.44;5009059;28;20406;-45
2021/03/11 06:20:26;;;;;;;15.00;9.23;;;6.50;85.50;;;5.99;56.05;100997.69;5008045;28;20034;-47
2021/03/11 06:22:54;;;;;;;15.00;9.95;;;6.50;85.40;;;5.97;55.89;100997.78;5009476;28;20133;-42
2021/03/11 06:25:21;;;;;;;23.70;15.65;;;6.50;84.90;;;5.96;55.99;100995.28;5008619;28;20038;-47
2021/03/11 06:27:48;;;;;;;34.97;22.58;;;6.50;84.80;;;5.98;55.94;100996.03;5009283;28;20571;-46
2021/03/11 06:30:35;;;;;;;19.40;12.70;;;6.50;85.00;;;5.99;56.44;100998.50;5008321;28;20113;-46
2021/03/11 06:33:04;;;;;;;14.95;10.45;;;6.50;85.20;;;6.01;56.04;101005.34;5009382;28;20103;-47
2021/03/11 06:35:31;;;;;;;19.77;11.63;;;6.50;85.40;;;6.00;56.37;101014.84;5008428;28;20022;-42
2021/03/11 06:37:58;;;;;;;20.08;12.25;;;6.60;86.30;;;6.04;56.54;101005.13;5007738;28;20037;-43
2021/03/11 06:40:29;;;;;;;18.30;11.95;;;6.60;87.20;;;6.08;57.14;101007.41;5008263;28;20084;-44
2021/03/11 06:43:13;;;;;;;19.10;12.05;;;6.50;87.50;;;6.18;57.41;101012.78;5008297;28;20038;-46
2021/03/11 06:45:40;;;;;;;21.42;12.75;;;6.70;88.00;;;6.24;56.97;101009.78;5009434;28;20037;-43
2021/03/11 06:48:25;;;;;;;19.13;12.13;;;6.70;87.80;;;6.33;57.34;101011.75;5008189;28;20049;-44
2021/03/11 06:50:53;;;;;;;19.98;11.25;;;6.80;88.00;;;6.38;56.58;101019.22;5007272;28;20045;-44
2021/03/11 06:53:19;;;;;;;21.20;11.85;;;6.90;86.90;;;6.51;55.70;101012.28;5008581;28;20386;-41
2021/03/11 06:55:45;;;;;;;17.13;11.75;;;7.00;86.30;;;6.60;56.04;101028.00;5008978;28;20572;-48
2021/03/11 07:00:47;;;;;;;35.65;17.42;;;7.10;85.90;;;6.67;55.97;101025.78;5029676;23;20088;-43
2021/03/11 07:03:14;;;;;;;24.10;13.45;;;7.20;86.00;;;6.71;55.56;101037.59;5029003;28;20500;-44
2021/03/11 07:05:44;;;;;;;21.48;11.98;;;7.30;85.10;;;6.80;55.54;101039.56;5026438;28;20033;-43
2021/03/11 07:08:16;;;;;;;18.88;10.70;;;7.30;83.80;;;6.89;54.22;101031.16;5027505;28;20491;-44
2021/03/11 07:10:47;;;;;;;17.10;10.80;;;7.40;82.20;;;7.01;53.77;101044.19;5026436;28;20102;-44
2021/03/11 07:13:13;;;;;;;19.70;10.88;;;7.40;81.90;;;7.05;53.86;101032.69;5030825;28;20452;-42
2021/03/11 07:15:40;;;;;;;21.10;13.02;;;7.60;81.00;;;7.12;53.95;101039.88;5028877;28;20127;-43
2021/03/11 07:18:19;;;;;;;27.83;12.63;;;7.70;80.70;;;7.19;53.73;101042.88;5033944;28;20061;-44
2021/03/11 07:20:46;;;;;;;17.23;11.13;;;7.70;80.60;;;7.39;53.75;101042.28;5034701;28;20036;-41
2021/03/11 07:23:16;;;;;;;20.30;11.48;;;7.80;81.60;;;7.68;53.48;101044.53;5034223;28;20381;-46
2021/03/11 07:25:45;;;;;;;20.25;11.15;;;8.00;81.30;;;7.88;53.05;101046.50;5027799;28;20044;-47
2021/03/11 07:28:31;;;;;;;20.75;11.32;;;8.30;80.50;;;8.15;52.92;101043.59;5027291;28;20034;-43
2021/03/11 07:31:02;;;;;;;22.05;11.65;;;8.50;80.20;;;8.44;52.07;101051.84;5026341;28;20049;-43
2021/03/11 07:33:32;;;;;;;18.58;12.38;;;8.80;79.10;;;8.38;51.81;101054.91;5027066;28;20117;-45
2021/03/11 07:36:08;;;;;;;15.60;10.40;;;8.90;78.20;;;8.28;51.56;101059.94;5025588;28;20068;-42
2021/03/11 07:38:36;;;;;;;21.13;10.80;;;8.90;77.60;;;8.18;52.27;101056.38;5037108;28;20026;-43
2021/03/11 07:41:06;;;;;;;22.13;11.48;;;8.80;76.40;;;8.12;51.86;101060.25;5023517;28;20045;-45
2021/03/11 07:43:33;;;;;;;16.40;11.50;;;8.70;77.00;;;8.13;52.46;101055.88;5027216;28;20120;-45
2021/03/11 07:46:04;;;;;;;23.17;11.38;;;8.70;77.80;;;8.21;52.13;101048.34;5032469;28;20451;-43
2021/03/11 07:48:30;;;;;;;18.67;11.75;;;8.70;77.30;;;8.38;51.96;101041.94;5028287;28;20392;-48
2021/03/11 07:50:58;;;;;;;18.88;10.93;;;8.80;78.00;;;8.60;51.55;101055.75;5031282;28;20139;-47
2021/03/11 07:53:27;;;;;;;19.25;11.13;;;9.00;76.40;;;8.80;50.36;101046.41;5038450;28;22055;-43
2021/03/11 07:55:55;;;;;;;20.33;10.93;;;9.30;74.00;;;8.83;50.18;101046.19;5024918;28;20091;-43
2021/03/11 07:58:23;;;;;;;18.75;10.93;;;9.30;74.30;;;8.97;49.91;101053.75;5027937;28;20033;-44
2021/03/11 08:00:50;;;;;;;19.15;12.10;;;9.40;73.90;;;9.04;50.09;101056.66;5009091;28;20037;-45
2021/03/11 08:03:25;;;;;;;20.08;11.75;;;9.50;73.70;;;9.08;49.80;101057.25;5009844;28;20049;-46
2021/03/11 08:05:51;;;;;;;17.67;9.88;;;9.60;73.20;;;9.12;49.59;101058.66;5027042;28;20030;-44
2021/03/11 08:08:29;;;;;;;23.10;12.00;;;9.70;71.60;;;9.11;49.29;101059.59;5022521;28;20048;-46
2021/03/11 08:11:00;;;;;;;28.25;13.23;;;9.70;71.50;;;8.95;50.90;101060.81;5026235;28;20460;-42
2021/03/11 08:13:37;;;;;;;20.10;12.35;;;9.60;73.50;;;9.23;49.82;101056.88;5028438;28;20033;-47
2021/03/11 08:16:15;;;;;;;23.88;12.18;;;9.80;73.00;;;9.32;48.99;101065.72;5028379;28;20051;-46
2021/03/11 08:18:46;;;;;;;18.02;10.48;;;9.90;72.10;;;9.48;48.25;101068.72;5038626;28;20049;-43
2021/03/11 08:21:24;;;;;;;18.55;11.10;;;10.00;70.10;;;9.81;47.33;101065.19;5043262;28;20037;-41
2021/03/11 08:23:57;;;;;;;17.67;10.45;;;10.30;69.50;;;9.76;47.66;101066.53;5018543;28;20045;-42
2021/03/11 08:26:38;;;;;;;17.75;9.95;;;10.30;68.50;;;9.73;46.66;101064.16;5012689;28;20496;-48
2021/03/11 08:29:19;;;;;;;20.73;12.13;;;10.40;67.30;;;9.77;46.78;101061.19;5010789;28;20389;-46
2021/03/11 08:31:49;;;;;;;19.05;10.57;;;10.40;67.30;;;9.88;47.17;101061.16;5011711;28;20099;-45
2021/03/11 08:34:33;;;;;;;16.80;12.10;;;10.40;67.60;;;9.96;46.58;101068.31;5012015;28;20040;-43
2021/03/11 08:37:29;;;;;;;18.42;10.52;;;10.50;67.20;;;9.97;46.92;101054.34;5011554;28;20030;-48
2021/03/11 08:39:56;;;;;;;20.55;12.55;;;10.50;67.90;;;10.21;47.18;101047.16;5011538;28;20056;-47
2021/03/11 08:42:48;;;;;;;17.05;9.93;;;10.60;68.60;;;10.21;46.00;101052.34;5011517;28;20034;-47
2021/03/11 08:45:37;;;;;;;20.90;10.80;;;10.70;66.40;;;10.14;45.66;101053.78;5011378;28;20413;-49
2021/03/11 08:48:15;;;;;;;18.42;10.55;;;10.80;65.90;;;9.92;46.03;101054.72;5011319;28;20076;-43
2021/03/11 08:50:50;;;;;;;18.98;11.15;;;10.70;65.40;;;10.02;46.68;101059.16;5011291;28;20029;-49
2021/03/11 08:53:47;;;;;;;18.65;11.02;;;10.70;66.40;;;10.02;47.46;101062.59;4994060;28;20493;-45
2021/03/11 08:56:16;;;;;;;16.42;10.77;;;10.60;67.30;;;10.13;47.42;101061.72;5011151;28;20576;-46
2021/03/11 08:59:04;;;;;;;19.40;12.48;;;10.70;67.60;;;10.04;47.51;101060.69;5010889;28;20532;-44
2021/03/11 09:01:49;;;;;;;20.67;12.77;;;10.70;68.30;;;10.17;47.79;101055.31;5011308;28;20050;-45
2021/03/11 09:04:21;;;;;;;24.33;15.07;;;10.70;68.00;;;9.97;48.12;101062.16;5011084;28;20443;-46
2021/03/11 09:07:03;;;;;;;20.42;12.60;;;10.70;67.60;;;9.86;48.56;101062.22;5011124;28;20042;-45
2021/03/11 09:09:46;;;;;;;22.95;13.57;;;10.60;68.10;;;9.80;48.46;101060.94;5010937;28;20026;-44
2021/03/11 09:12:25;;;;;;;21.55;12.48;;;10.50;68.10;;;10.03;48.72;101064.25;5011082;28;20116;-46
2021/03/11 09:14:59;;;;;;;25.33;11.75;;;10.60;69.10;;;10.10;48.13;101070.59;5010790;28;20033;-48
2021/03/11 09:17:30;;;;;;;17.42;10.27;;;10.70;68.80;;;10.09;48.21;101063.75;5010817;28;20493;-45
2021/03/11 09:20:12;;;;;;;18.50;10.50;;;10.70;68.20;;;10.27;47.98;101061.44;5010562;28;20346;-46
2021/03/11 09:22:58;;;;;;;25.67;10.32;;;10.70;68.40;;;10.25;47.68;101058.97;4994674;28;20079;-48
2021/03/11 09:25:25;;;;;;;11.98;8.23;;;10.70;68.20;;;10.11;47.96;101063.63;5010010;28;20485;-45
2021/03/11 09:27:57;;;;;;;14.80;9.38;;;10.70;68.00;;;10.09;47.89;101065.53;5010341;28;20046;-46
2021/03/11 09:30:27;;;;;;;15.73;9.45;;;10.70;67.60;;;10.18;47.61;101062.16;5010243;28;20384;-47
2021/03/11 09:32:54;;;;;;;16.05;9.07;;;10.70;67.70;;;10.21;47.16;101060.16;5010341;28;20038;-47
2021/03/11 09:35:24;;;;;;;14.98;9.45;;;10.80;66.90;;;10.35;47.37;101056.41;5010689;28;20036;-46
2021/03/11 09:37:54;;;;;;;16.60;10.45;;;10.90;66.90;;;10.66;46.91;101059.84;5010084;28;20049;-45
2021/03/11 09:40:31;;;;;;;15.18;9.60;;;11.10;67.10;;;11.04;45.46;101051.31;5010387;28;20472;-43
2021/03/11 09:43:13;;;;;;;15.23;9.93;;;11.30;66.30;;;11.14;45.16;101046.16;5010577;28;20038;-44
2021/03/11 09:45:42;;;;;;;16.55;8.95;;;11.50;66.00;;;11.17;45.57;101040.66;4992516;28;20129;-45
2021/03/11 09:48:50;;;;;;;20.52;10.60;;;11.70;65.30;;;11.51;44.73;101047.16;5010173;28;20038;-42
2021/03/11 09:51:20;;;;;;;15.05;9.13;;;12.10;63.80;;;11.82;44.79;101053.06;4980792;28;20054;-44
2021/03/11 09:53:48;;;;;;;17.20;9.93;;;12.30;64.10;;;11.78;44.95;101045.69;5010206;28;20074;-43
2021/03/11 09:56:23;;;;;;;17.90;9.77;;;12.40;63.50;;;11.73;44.89;101043.47;5010006;28;20512;-46
2021/03/11 09:59:03;;;;;;;17.67;10.63;;;12.30;63.70;;;11.92;44.92;101032.19;5010005;28;20042;-45
2021/03/11 10:01:37;;;;;;;18.77;10.13;;;12.40;64.20;;;12.04;44.68;101033.69;4992782;28;20120;-45
2021/03/11 10:04:18;;;;;;;14.30;9.30;;;12.60;63.80;;;12.02;44.72;101021.72;5009936;28;20057;-45
2021/03/11 10:06:53;;;;;;;20.92;9.35;;;12.60;63.30;;;12.18;44.80;101025.41;5009881;28;20147;-46
2021/03/11 10:09:20;;;;;;;14.25;8.85;;;12.80;64.30;;;11.70;45.53;101029.84;5010231;28;20033;-48
2021/03/11 10:11:52;;;;;;;15.93;9.02;;;12.70;63.10;;;11.46;46.38;101025.03;5009814;28;20185;-51
2021/03/11 10:14:28;;;;;;;15.02;9.57;;;12.40;64.00;;;11.76;45.51;101024.09;5009913;28;20038;-48
2021/03/11 10:17:02;;;;;;;16.05;8.35;;;12.40;64.20;;;11.78;45.89;101027.41;5009741;28;20417;-49
2021/03/11 10:19:36;;;;;;;16.83;8.88;;;12.30;64.60;;;11.82;45.72;101036.59;5009395;28;20034;-46
2021/03/11 10:22:05;;;;;;;14.07;9.13;;;12.40;64.40;;;11.26;46.31;101039.84;5009489;28;20065;-45
2021/03/11 10:24:51;;;;;;;17.90;8.30;;;12.10;64.60;;;11.37;46.71;101034.50;5009741;28;20104;-43
2021/03/11 10:27:32;;;;;;;13.38;8.90;;;12.00;65.40;;;11.41;46.39;101029.84;5009503;28;20073;-43